Time;durP1;ratioP1;P1;durP2;ratioP2;P2;SDS_P1;SDS_P2;PMS_P1;PMS_P2;Temp;Humidity;BMP_temperature;BMP_pressure;BME280_temperature;BME280_humidity;BME280_pressure;Samples;Min_cycle;Max_cycle;Signal;HPM_P1;HPM_P2
2023/07/04 00:00:46;;;;;;;5.43;2.80;;;17.90;99.90;;;;;;5051028;28;20701;-55
2023/07/04 00:03:14;;;;;;;6.03;2.55;;;17.90;99.90;;;;;;5050879;28;20252;-55
2023/07/04 00:05:47;;;;;;;4.70;2.50;;;17.80;99.90;;;;;;5047785;28;20243;-57
2023/07/04 00:08:15;;;;;;;6.15;2.67;;;17.80;99.90;;;;;;5039719;28;20669;-55
2023/07/04 00:10:43;;;;;;;3.40;2.90;;;17.80;99.90;;;;;;5047928;28;20749;-57
2023/07/04 00:13:11;;;;;;;3.60;2.38;;;17.80;99.90;;;;;;5050451;28;20287;-58
2023/07/04 00:15:45;;;;;;;3.85;2.53;;;17.70;99.90;;;;;;5049138;28;20312;-56
2023/07/04 00:18:14;;;;;;;3.83;2.55;;;17.70;99.90;;;;;;5043949;28;20229;-57
2023/07/04 00:20:43;;;;;;;5.97;2.28;;;17.70;99.90;;;;;;5046000;28;20363;-55
2023/07/04 00:23:12;;;;;;;2.60;2.35;;;17.70;99.90;;;;;;5050944;28;20700;-55
2023/07/04 00:25:40;;;;;;;4.50;2.67;;;17.70;99.90;;;;;;5047937;28;20237;-55
2023/07/04 00:28:07;;;;;;;5.07;2.55;;;17.60;99.90;;;;;;5049348;28;20229;-55
2023/07/04 00:30:35;;;;;;;4.75;2.38;;;17.60;99.90;;;;;;5048123;28;20771;-56
2023/07/04 00:33:05;;;;;;;4.18;2.67;;;17.60;99.90;;;;;;5051558;28;20216;-56
2023/07/04 00:35:33;;;;;;;3.17;2.58;;;17.60;99.90;;;;;;5051151;28;20313;-55
2023/07/04 00:38:00;;;;;;;2.95;2.65;;;17.50;99.90;;;;;;5051288;28;20271;-55
2023/07/04 00:40:28;;;;;;;3.83;2.60;;;17.50;99.90;;;;;;5051346;28;20205;-56
2023/07/04 00:43:02;;;;;;;5.43;2.80;;;17.50;99.90;;;;;;5051080;28;20229;-55
2023/07/04 00:45:31;;;;;;;5.93;2.47;;;17.50;99.90;;;;;;5050829;28;20259;-56
2023/07/04 00:48:00;;;;;;;4.05;2.72;;;17.50;99.90;;;;;;5049403;28;20205;-59
2023/07/04 00:50:32;;;;;;;4.43;2.40;;;17.40;99.90;;;;;;5051107;28;20217;-55
2023/07/04 00:53:02;;;;;;;2.63;2.42;;;17.40;99.90;;;;;;5051018;28;20665;-56
2023/07/04 00:55:30;;;;;;;3.53;2.67;;;17.30;99.90;;;;;;5045552;28;20287;-57
2023/07/04 00:57:58;;;;;;;2.50;2.35;;;17.30;99.90;;;;;;5050072;28;20245;-56
2023/07/04 01:00:27;;;;;;;4.63;2.70;;;17.30;99.90;;;;;;5050500;28;20233;-55
2023/07/04 01:02:59;;;;;;;6.25;2.50;;;17.30;99.90;;;;;;5050330;28;20233;-56
2023/07/04 01:05:29;;;;;;;4.30;2.55;;;17.20;99.90;;;;;;5049108;28;20308;-55
2023/07/04 01:08:00;;;;;;;4.05;2.92;;;17.20;99.90;;;;;;5050047;28;20209;-55
2023/07/04 01:10:32;;;;;;;4.70;2.75;;;17.20;99.90;;;;;;5049522;28;20237;-55
2023/07/04 01:13:00;;;;;;;3.88;2.53;;;17.20;99.90;;;;;;5050533;28;20194;-55
2023/07/04 01:15:30;;;;;;;3.80;2.97;;;17.10;99.90;;;;;;5050531;28;20344;-57
2023/07/04 01:17:58;;;;;;;3.40;2.50;;;17.10;99.90;;;;;;5050351;28;20217;-58
2023/07/04 01:20:27;;;;;;;3.10;2.80;;;17.10;99.90;;;;;;5050428;28;20212;-58
2023/07/04 01:23:06;;;;;;;3.42;2.22;;;17.10;99.90;;;;;;5046663;28;20771;-58
2023/07/04 01:25:37;;;;;;;3.15;2.03;;;17.00;99.90;;;;;;5048403;28;20248;-60
2023/07/04 01:28:06;;;;;;;2.97;2.65;;;17.00;99.90;;;;;;5047833;28;20229;-61
2023/07/04 01:30:38;;;;;;;3.03;2.35;;;16.90;99.90;;;;;;5050523;28;20210;-60
2023/07/04 01:33:08;;;;;;;2.85;2.53;;;16.90;99.90;;;;;;5057727;28;20193;-60
2023/07/04 01:35:36;;;;;;;3.35;2.63;;;16.90;99.90;;;;;;5045328;28;20811;-61
2023/07/04 01:38:06;;;;;;;3.08;2.20;;;16.90;99.90;;;;;;5053173;28;20194;-61
2023/07/04 01:40:34;;;;;;;5.10;3.10;;;16.80;99.90;;;;;;5056232;28;20237;-60
2023/07/04 01:43:02;;;;;;;3.95;2.78;;;16.80;99.90;;;;;;5055528;28;20257;-61
2023/07/04 01:45:32;;;;;;;6.47;2.97;;;16.80;99.90;;;;;;5057075;28;20229;-61
2023/07/04 01:48:00;;;;;;;5.22;2.88;;;16.80;99.90;;;;;;5048695;28;20634;-62
2023/07/04 01:50:28;;;;;;;3.08;2.78;;;16.80;99.90;;;;;;5057096;28;20210;-61
2023/07/04 01:52:56;;;;;;;7.10;2.67;;;16.80;99.90;;;;;;5057724;28;20247;-61
2023/07/04 01:55:24;;;;;;;2.78;2.58;;;16.70;99.90;;;;;;5056463;28;20252;-61
2023/07/04 01:57:52;;;;;;;6.72;3.15;;;16.70;99.90;;;;;;5053303;28;20205;-61
2023/07/04 02:00:22;;;;;;;3.28;2.83;;;16.70;99.90;;;;;;5060620;28;20657;-61
2023/07/04 02:02:51;;;;;;;2.80;2.60;;;16.60;99.90;;;;;;5061874;28;20234;-60
2023/07/04 02:05:19;;;;;;;3.70;2.72;;;16.60;99.90;;;;;;5058695;28;20244;-61
2023/07/04 02:07:47;;;;;;;6.40;2.53;;;16.60;99.90;;;;;;5064874;28;20637;-61
2023/07/04 02:10:15;;;;;;;5.47;2.75;;;16.60;99.90;;;;;;5061832;28;20202;-58
2023/07/04 02:12:43;;;;;;;3.25;2.88;;;16.60;99.90;;;;;;5057711;28;20202;-61
2023/07/04 02:15:11;;;;;;;2.90;2.60;;;16.50;99.90;;;;;;5057504;28;20252;-61
2023/07/04 02:17:40;;;;;;;6.95;3.03;;;16.50;99.90;;;;;;5056715;28;20401;-61
2023/07/04 02:20:11;;;;;;;3.17;2.78;;;16.50;99.90;;;;;;5056021;28;20210;-61
2023/07/04 02:22:41;;;;;;;3.05;2.33;;;16.50;99.90;;;;;;5061959;28;20283;-61
2023/07/04 02:25:10;;;;;;;4.20;3.03;;;16.40;99.90;;;;;;5060566;28;20291;-59
2023/07/04 02:27:37;;;;;;;4.82;2.50;;;16.40;99.90;;;;;;5062290;28;20664;-61
2023/07/04 02:30:07;;;;;;;3.28;2.83;;;16.40;99.90;;;;;;5062144;28;20252;-61
2023/07/04 02:32:34;;;;;;;4.13;2.45;;;16.40;99.90;;;;;;5062767;28;20228;-60
2023/07/04 02:35:02;;;;;;;3.75;2.75;;;16.30;99.90;;;;;;5062047;28;20226;-60
2023/07/04 02:37:32;;;;;;;3.30;2.70;;;16.30;99.90;;;;;;5062596;28;20201;-60
2023/07/04 02:40:00;;;;;;;2.90;2.58;;;16.30;99.90;;;;;;5059339;28;20245;-61
2023/07/04 02:42:28;;;;;;;3.10;2.70;;;16.30;99.90;;;;;;5058844;28;20766;-61
2023/07/04 02:44:56;;;;;;;4.65;2.90;;;16.30;99.90;;;;;;5065678;28;20233;-61
2023/07/04 02:47:26;;;;;;;4.00;2.83;;;16.30;99.90;;;;;;5056374;28;20234;-61
2023/07/04 02:49:54;;;;;;;4.90;2.85;;;16.30;99.90;;;;;;5063325;28;20241;-61
2023/07/04 02:52:24;;;;;;;3.92;3.03;;;16.20;99.90;;;;;;5064660;28;20198;-61
2023/07/04 02:54:54;;;;;;;2.95;2.42;;;16.20;99.90;;;;;;5062875;28;20605;-60
2023/07/04 02:57:22;;;;;;;6.85;2.90;;;16.20;99.90;;;;;;5059487;28;20217;-60
2023/07/04 02:59:50;;;;;;;4.18;2.50;;;16.10;99.90;;;;;;5063592;28;20206;-60
2023/07/04 03:02:18;;;;;;;2.97;2.78;;;16.10;99.90;;;;;;5064999;28;20221;-61
2023/07/04 03:04:47;;;;;;;3.50;2.80;;;16.10;99.90;;;;;;5067461;28;20230;-61
2023/07/04 03:07:15;;;;;;;3.10;2.78;;;16.10;99.90;;;;;;5056789;28;20752;-59
2023/07/04 03:09:43;;;;;;;6.05;2.65;;;16.10;99.90;;;;;;5070388;28;20597;-61
2023/07/04 03:12:13;;;;;;;3.50;2.88;;;16.10;99.90;;;;;;5063363;28;20481;-61
2023/07/04 03:14:41;;;;;;;5.28;2.65;;;16.00;99.90;;;;;;5067569;28;20234;-61
2023/07/04 03:17:09;;;;;;;3.83;2.92;;;16.00;99.90;;;;;;5059007;28;20211;-59
2023/07/04 03:19:37;;;;;;;3.30;3.00;;;16.00;99.90;;;;;;5067585;28;20209;-61
2023/07/04 03:22:05;;;;;;;6.15;3.13;;;16.00;99.90;;;;;;5067479;28;20673;-61
2023/07/04 03:24:33;;;;;;;3.88;3.10;;;16.00;99.90;;;;;;5063232;28;20252;-60
2023/07/04 03:27:01;;;;;;;5.95;3.15;;;16.00;99.90;;;;;;5067903;28;20198;-61
2023/07/04 03:29:30;;;;;;;3.45;3.20;;;16.00;99.90;;;;;;5064547;28;20209;-60
2023/07/04 03:31:58;;;;;;;6.60;3.47;;;15.90;99.90;;;;;;5063959;28;20206;-59
2023/07/04 03:34:26;;;;;;;3.58;3.15;;;15.90;99.90;;;;;;5063645;28;20213;-58
2023/07/04 03:36:54;;;;;;;3.42;3.13;;;15.90;99.90;;;;;;5059811;28;20217;-60
2023/07/04 03:39:22;;;;;;;3.42;2.78;;;15.80;99.90;;;;;;5062859;28;20225;-59
2023/07/04 03:41:50;;;;;;;4.55;3.13;;;15.80;99.90;;;;;;5066830;28;20214;-59
2023/07/04 03:44:18;;;;;;;5.60;3.33;;;15.90;99.90;;;;;;5064003;28;20222;-61
2023/07/04 03:46:48;;;;;;;5.10;3.38;;;15.90;99.90;;;;;;5064854;28;20252;-60
2023/07/04 03:49:16;;;;;;;6.40;3.03;;;15.80;99.90;;;;;;5068019;28;20205;-60
2023/07/04 03:51:44;;;;;;;3.28;3.05;;;15.80;99.90;;;;;;5068288;28;20208;-61
2023/07/04 03:54:14;;;;;;;7.03;3.05;;;15.80;99.90;;;;;;5066637;28;20202;-61
2023/07/04 03:56:42;;;;;;;4.63;2.65;;;15.80;99.90;;;;;;5067136;28;20205;-59
2023/07/04 03:59:10;;;;;;;3.47;3.15;;;15.80;99.90;;;;;;5067176;28;20205;-60
2023/07/04 04:01:38;;;;;;;6.25;3.08;;;15.80;99.90;;;;;;5062933;28;20685;-59
2023/07/04 04:04:07;;;;;;;2.15;1.98;;;15.80;99.90;;;;;;5051923;28;20649;-59
2023/07/04 04:06:35;;;;;;;3.67;2.13;;;16.00;99.90;;;;;;5051024;28;20670;-60
2023/07/04 04:09:03;;;;;;;4.15;2.03;;;16.50;99.90;;;;;;5053766;28;20201;-59
2023/07/04 04:11:31;;;;;;;3.55;2.30;;;16.90;99.90;;;;;;5054737;28;20229;-59
2023/07/04 04:13:59;;;;;;;3.85;2.60;;;17.30;99.90;;;;;;5037846;28;20555;-59
2023/07/04 04:16:27;;;;;;;4.00;2.78;;;17.60;99.90;;;;;;5045984;28;20741;-59
2023/07/04 04:18:55;;;;;;;4.25;3.00;;;17.80;99.90;;;;;;5060278;28;20874;-59
2023/07/04 04:21:24;;;;;;;6.40;2.75;;;18.00;99.90;;;;;;5050506;28;20279;-59
2023/07/04 04:23:52;;;;;;;4.50;2.53;;;18.10;99.90;;;;;;5049879;28;20308;-59
2023/07/04 04:26:20;;;;;;;3.42;2.80;;;18.10;99.90;;;;;;5047032;28;20225;-59
2023/07/04 04:28:48;;;;;;;2.17;2.08;;;18.10;99.90;;;;;;5053100;28;20209;-59
2023/07/04 04:31:16;;;;;;;4.95;2.83;;;18.10;99.90;;;;;;5052890;28;20237;-58
2023/07/04 04:33:44;;;;;;;5.32;2.45;;;18.10;99.90;;;;;;5052901;28;20205;-59
2023/07/04 04:36:16;;;;;;;2.05;1.85;;;18.20;99.90;;;;;;5052874;28;20263;-58
2023/07/04 04:38:45;;;;;;;2.78;2.38;;;18.20;99.90;;;;;;5053014;28;20276;-59
2023/07/04 04:41:13;;;;;;;5.32;2.90;;;18.20;99.90;;;;;;5052593;28;20251;-60
2023/07/04 04:43:41;;;;;;;3.53;2.60;;;18.20;99.90;;;;;;5052788;28;20676;-59
2023/07/04 04:46:09;;;;;;;4.63;3.03;;;18.20;99.90;;;;;;5052607;28;20268;-60
2023/07/04 04:48:37;;;;;;;6.32;2.63;;;18.30;99.90;;;;;;5052891;28;20259;-59
2023/07/04 04:51:07;;;;;;;2.85;2.58;;;18.30;99.90;;;;;;5052540;28;20206;-59
2023/07/04 04:53:35;;;;;;;4.38;2.65;;;18.30;99.90;;;;;;5048502;28;20193;-61
2023/07/04 04:56:05;;;;;;;3.83;2.67;;;18.30;99.90;;;;;;5051817;28;20743;-60
2023/07/04 04:58:33;;;;;;;4.10;2.33;;;18.30;99.90;;;;;;5051838;28;20686;-59
2023/07/04 05:01:06;;;;;;;4.30;2.80;;;18.40;99.90;;;;;;5052372;28;20228;-59
2023/07/04 05:03:34;;;;;;;3.55;2.75;;;18.40;99.90;;;;;;5048891;28;20697;-60
2023/07/04 05:06:03;;;;;;;2.95;2.45;;;18.40;99.90;;;;;;5051630;28;20742;-60
2023/07/04 05:08:30;;;;;;;6.82;2.97;;;18.40;99.90;;;;;;5052012;28;20201;-59
2023/07/04 05:11:00;;;;;;;4.10;2.60;;;18.40;99.90;;;;;;5051854;28;20229;-60
2023/07/04 05:13:29;;;;;;;3.72;2.40;;;18.40;99.90;;;;;;5053164;28;20556;-60
2023/07/04 05:16:00;;;;;;;3.78;2.50;;;18.40;99.90;;;;;;5051718;28;20241;-60
2023/07/04 05:18:28;;;;;;;3.20;2.40;;;18.40;99.90;;;;;;5049270;28;20665;-62
2023/07/04 05:21:03;;;;;;;3.05;2.60;;;18.40;99.90;;;;;;5050335;28;20205;-62
2023/07/04 05:23:31;;;;;;;3.28;2.72;;;18.40;99.90;;;;;;5050366;28;20742;-63
2023/07/04 05:26:01;;;;;;;4.07;2.90;;;18.40;99.90;;;;;;5049472;28;20225;-62
2023/07/04 05:28:30;;;;;;;5.53;3.17;;;18.40;99.90;;;;;;5051046;28;20209;-62
2023/07/04 05:30:59;;;;;;;7.80;3.42;;;18.50;99.90;;;;;;5050495;28;20205;-62
2023/07/04 05:33:27;;;;;;;5.95;3.10;;;18.50;99.90;;;;;;5054492;28;20243;-62
2023/07/04 05:36:06;;;;;;;3.45;3.15;;;18.40;99.90;;;;;;5054480;28;20334;-61
2023/07/04 05:38:34;;;;;;;11.98;3.22;;;18.40;99.90;;;;;;5057754;28;20296;-61
2023/07/04 05:41:02;;;;;;;9.25;3.10;;;18.40;99.90;;;;;;5054394;28;20281;-62
2023/07/04 05:43:31;;;;;;;5.53;2.97;;;18.50;99.90;;;;;;5053236;28;20251;-62
2023/07/04 05:45:59;;;;;;;8.30;3.25;;;18.50;99.90;;;;;;5046027;28;20253;-58
2023/07/04 05:48:27;;;;;;;5.00;3.33;;;18.50;99.90;;;;;;5054572;28;20197;-58
2023/07/04 05:50:55;;;;;;;9.50;3.45;;;18.50;99.90;;;;;;5058109;28;20685;-57
2023/07/04 05:53:25;;;;;;;6.82;3.47;;;18.40;99.90;;;;;;5054429;28;20300;-56
2023/07/04 05:55:53;;;;;;;6.03;3.33;;;18.30;99.90;;;;;;5056360;28;20717;-58
2023/07/04 05:58:21;;;;;;;6.85;3.67;;;18.10;99.90;;;;;;5054305;28;20193;-58
2023/07/04 06:00:51;;;;;;;8.63;3.50;;;18.00;99.90;;;;;;5054305;28;20225;-58
2023/07/04 06:03:19;;;;;;;9.23;4.10;;;17.90;99.90;;;;;;5054115;28;20296;-59
2023/07/04 06:05:47;;;;;;;10.20;2.78;;;17.90;99.90;;;;;;5052635;28;20709;-58
2023/07/04 06:08:15;;;;;;;8.43;3.38;;;17.80;99.90;;;;;;5054089;28;20644;-59
2023/07/04 06:10:45;;;;;;;8.27;4.32;;;17.90;99.90;;;;;;5053180;28;20592;-58
2023/07/04 06:13:13;;;;;;;8.30;3.72;;;18.00;99.90;;;;;;5053702;28;20205;-59
2023/07/04 06:15:41;;;;;;;8.70;4.13;;;18.10;99.90;;;;;;5052403;28;20225;-58
2023/07/04 06:18:11;;;;;;;7.68;3.60;;;18.20;99.90;;;;;;5052680;28;20210;-58
2023/07/04 06:20:38;;;;;;;11.10;3.90;;;18.30;99.90;;;;;;5053216;28;20768;-58
2023/07/04 06:23:06;;;;;;;9.65;4.10;;;18.30;99.90;;;;;;5053536;28;20229;-58
2023/07/04 06:25:34;;;;;;;36.47;8.23;;;18.40;99.90;;;;;;5049330;28;20225;-58
2023/07/04 06:28:02;;;;;;;11.98;4.60;;;18.40;99.90;;;;;;5053256;28;20276;-59
2023/07/04 06:30:34;;;;;;;10.80;4.40;;;18.50;99.90;;;;;;5053088;28;20707;-58
2023/07/04 06:33:03;;;;;;;12.35;3.75;;;18.50;99.90;;;;;;5048647;28;20289;-59
2023/07/04 06:35:33;;;;;;;18.45;4.93;;;18.50;99.90;;;;;;5051838;28;20218;-59
2023/07/04 06:38:00;;;;;;;9.73;3.67;;;18.40;99.90;;;;;;5051516;28;20388;-58
2023/07/04 06:40:28;;;;;;;12.43;4.22;;;18.40;99.90;;;;;;5053100;28;20215;-62
2023/07/04 06:42:56;;;;;;;7.95;2.85;;;18.50;99.90;;;;;;5052687;28;20617;-61
2023/07/04 06:45:24;;;;;;;10.88;3.42;;;18.50;99.90;;;;;;5052166;28;20648;-61
2023/07/04 06:47:52;;;;;;;11.73;3.53;;;18.60;99.90;;;;;;5052850;28;20205;-59
2023/07/04 06:50:20;;;;;;;14.57;3.45;;;18.70;99.90;;;;;;5052940;28;20216;-59
2023/07/04 06:52:49;;;;;;;7.07;3.03;;;18.60;99.90;;;;;;5053512;28;20623;-59
2023/07/04 06:55:17;;;;;;;11.38;3.30;;;18.70;99.90;;;;;;5053143;28;20256;-60
2023/07/04 06:57:46;;;;;;;9.05;3.45;;;18.70;99.90;;;;;;5053291;28;20609;-60
2023/07/04 07:00:15;;;;;;;14.63;3.65;;;18.70;99.90;;;;;;5053693;28;20280;-60
2023/07/04 07:02:43;;;;;;;10.77;3.15;;;18.70;99.90;;;;;;5053504;28;20244;-60
2023/07/04 07:05:11;;;;;;;8.20;3.13;;;18.70;99.90;;;;;;5052830;28;20261;-60
2023/07/04 07:07:39;;;;;;;7.55;3.17;;;18.70;99.90;;;;;;5053343;28;20289;-60
2023/07/04 07:10:09;;;;;;;8.45;3.00;;;18.70;99.90;;;;;;5051704;28;20752;-60
2023/07/04 07:12:37;;;;;;;10.52;3.42;;;18.70;99.90;;;;;;5053043;28;20237;-60
2023/07/04 07:15:06;;;;;;;6.90;2.60;;;18.70;99.90;;;;;;5052907;28;20638;-60
2023/07/04 07:17:34;;;;;;;8.38;3.15;;;18.70;99.90;;;;;;5036757;28;20289;-60
2023/07/04 07:20:07;;;;;;;9.10;2.97;;;18.80;99.90;;;;;;5053185;28;20280;-59
2023/07/04 07:22:34;;;;;;;8.45;3.13;;;18.80;99.90;;;;;;5052913;28;20674;-60
2023/07/04 07:25:02;;;;;;;8.75;3.35;;;18.90;99.90;;;;;;5053161;28;20257;-58
2023/07/04 07:27:32;;;;;;;6.38;3.00;;;19.00;99.90;;;;;;5052980;28;20259;-57
2023/07/04 07:30:00;;;;;;;7.60;2.83;;;19.00;99.90;;;;;;5052948;28;20204;-57
2023/07/04 07:32:29;;;;;;;5.93;2.97;;;19.10;99.90;;;;;;5052699;28;20259;-57
2023/07/04 07:34:57;;;;;;;5.88;2.72;;;19.10;99.90;;;;;;5052293;28;20225;-57
2023/07/04 07:37:25;;;;;;;11.70;3.78;;;19.20;99.90;;;;;;5052289;28;20202;-56
2023/07/04 07:39:52;;;;;;;8.15;2.80;;;19.20;99.90;;;;;;5052721;28;20255;-57
2023/07/04 07:42:20;;;;;;;8.00;2.60;;;19.30;99.90;;;;;;5052557;28;20213;-58
2023/07/04 07:44:50;;;;;;;7.50;2.80;;;19.30;99.90;;;;;;5052108;28;20279;-57
2023/07/04 07:47:19;;;;;;;11.43;3.05;;;19.40;99.90;;;;;;5052225;28;20255;-57
2023/07/04 07:49:47;;;;;;;9.50;3.45;;;19.50;99.90;;;;;;5051802;28;20220;-58
2023/07/04 07:52:15;;;;;;;8.35;2.75;;;19.60;99.90;;;;;;5051543;28;20263;-58
2023/07/04 07:54:43;;;;;;;8.80;3.20;;;19.60;99.90;;;;;;5050460;28;20627;-57
2023/07/04 07:57:11;;;;;;;7.60;2.60;;;19.70;99.90;;;;;;5051742;28;20244;-59
2023/07/04 07:59:39;;;;;;;7.38;2.70;;;19.80;99.90;;;;;;5052414;28;20209;-58
2023/07/04 08:02:12;;;;;;;8.20;2.83;;;19.80;99.90;;;;;;5052131;28;20241;-58
2023/07/04 08:04:40;;;;;;;5.88;2.88;;;19.80;99.90;;;;;;5052190;28;20304;-58
2023/07/04 08:07:09;;;;;;;7.97;2.75;;;19.90;99.90;;;;;;5052441;28;20201;-59
2023/07/04 08:09:37;;;;;;;8.68;2.90;;;20.00;99.90;;;;;;5036148;28;20206;-58
2023/07/04 08:12:06;;;;;;;8.38;3.28;;;20.00;99.90;;;;;;5052165;28;20292;-59
2023/07/04 08:14:34;;;;;;;6.50;2.90;;;20.00;99.90;;;;;;5051769;28;20257;-57
2023/07/04 08:17:01;;;;;;;9.48;2.78;;;20.10;99.90;;;;;;5052268;28;20243;-58
2023/07/04 08:19:31;;;;;;;9.18;2.53;;;20.20;99.90;;;;;;5052122;28;20209;-58
2023/07/04 08:21:59;;;;;;;7.07;2.50;;;20.30;99.90;;;;;;5052037;28;20224;-59
2023/07/04 08:24:26;;;;;;;5.90;2.83;;;20.40;99.90;;;;;;5051612;28;20660;-59
2023/07/04 08:26:55;;;;;;;4.68;2.90;;;20.50;99.90;;;;;;5051315;28;20217;-59
2023/07/04 08:29:23;;;;;;;7.55;2.53;;;20.60;99.90;;;;;;5052066;28;20296;-59
2023/07/04 08:31:51;;;;;;;6.53;3.00;;;20.70;99.90;;;;;;5051776;28;20201;-60
2023/07/04 08:34:19;;;;;;;6.95;2.92;;;20.70;99.90;;;;;;5051778;28;20224;-58
2023/07/04 08:36:49;;;;;;;4.78;2.83;;;20.90;99.90;;;;;;5051362;28;20229;-60
2023/07/04 08:39:18;;;;;;;6.25;2.75;;;20.90;99.90;;;;;;5051448;28;20205;-59
2023/07/04 08:41:47;;;;;;;4.22;2.95;;;21.00;99.90;;;;;;5051401;28;20217;-58
2023/07/04 08:44:17;;;;;;;6.43;2.55;;;21.10;99.90;;;;;;5051556;28;20613;-58
2023/07/04 08:46:46;;;;;;;4.88;2.75;;;21.20;99.90;;;;;;5051173;28;20217;-59
2023/07/04 08:49:34;;;;;;;9.25;2.90;;;21.20;99.90;;;;;;5051487;28;20286;-59
2023/07/04 08:52:06;;;;;;;5.68;3.00;;;21.40;99.90;;;;;;5051192;28;20210;-60
2023/07/04 08:54:35;;;;;;;7.93;2.55;;;21.40;99.90;;;;;;5051369;28;20221;-59
2023/07/04 08:57:07;;;;;;;6.50;3.00;;;21.50;99.90;;;;;;5051448;28;20202;-59
2023/07/04 08:59:39;;;;;;;6.93;3.00;;;21.60;99.90;;;;;;5035034;28;20280;-59
2023/07/04 09:02:38;;;;;;;6.70;2.35;;;21.70;99.90;;;;;;5051167;28;20673;-58
2023/07/04 09:05:10;;;;;;;5.90;2.90;;;21.80;99.90;;;;;;5051073;28;20233;-58
2023/07/04 09:07:43;;;;;;;4.93;2.80;;;21.90;99.90;;;;;;5035867;28;20681;-59
2023/07/04 09:10:18;;;;;;;7.80;2.90;;;22.00;99.90;;;;;;5055436;28;20633;-59
2023/07/04 09:12:46;;;;;;;6.00;2.83;;;22.00;99.90;;;;;;5055307;28;20250;-58
2023/07/04 09:15:17;;;;;;;4.85;2.80;;;22.20;99.90;;;;;;5054612;28;20304;-59
2023/07/04 09:17:49;;;;;;;8.30;3.47;;;22.40;99.90;;;;;;5055235;28;20197;-58
2023/07/04 09:20:18;;;;;;;5.65;3.28;;;22.50;99.90;;;;;;5055186;28;20205;-58
2023/07/04 09:22:47;;;;;;;7.70;3.33;;;22.60;99.90;;;;;;5055085;28;20300;-60
2023/07/04 09:25:15;;;;;;;5.45;3.30;;;22.80;99.90;;;;;;5054521;28;20256;-59
2023/07/04 09:27:43;;;;;;;8.10;3.63;;;22.90;99.90;;;;;;5055070;28;20205;-58
2023/07/04 09:30:12;;;;;;;6.53;3.63;;;22.90;99.90;;;;;;5054845;28;20612;-59
2023/07/04 09:32:41;;;;;;;6.18;3.55;;;22.90;99.90;;;;;;5054755;28;20216;-59
2023/07/04 09:35:10;;;;;;;8.18;3.35;;;23.00;99.90;;;;;;5054610;28;20221;-58
2023/07/04 09:37:58;;;;;;;5.38;3.22;;;23.10;99.90;;;;;;5038697;28;20194;-60
2023/07/04 09:40:42;;;;;;;7.55;3.15;;;23.30;99.90;;;;;;5054797;28;20240;-59
2023/07/04 09:43:11;;;;;;;8.48;3.47;;;23.40;99.90;;;;;;5054840;28;20665;-59
2023/07/04 09:45:39;;;;;;;6.30;3.13;;;23.40;99.90;;;;;;5054317;28;20271;-59
2023/07/04 09:48:07;;;;;;;5.85;3.15;;;23.40;99.90;;;;;;5054392;28;20661;-58
2023/07/04 09:50:38;;;;;;;8.15;3.15;;;23.40;99.90;;;;;;5052303;28;20221;-57
2023/07/04 09:53:09;;;;;;;9.48;3.45;;;23.50;99.90;;;;;;5054377;28;20229;-58
2023/07/04 09:55:38;;;;;;;4.47;3.20;;;23.70;99.90;;;;;;5051312;28;20217;-60
2023/07/04 09:58:16;;;;;;;4.57;3.22;;;23.80;99.90;;;;;;5054516;28;20327;-61
2023/07/04 10:00:44;;;;;;;5.70;3.40;;;24.10;99.90;;;;;;5054513;28;20248;-59
2023/07/04 10:03:12;;;;;;;13.35;4.03;;;24.30;99.90;;;;;;5054663;28;20233;-61
2023/07/04 10:05:40;;;;;;;7.55;3.85;;;24.40;99.40;;;;;;5054117;28;20233;-60
2023/07/04 10:08:11;;;;;;;5.35;3.65;;;24.40;98.80;;;;;;5054369;28;20209;-61
2023/07/04 10:10:43;;;;;;;6.00;4.00;;;24.50;98.10;;;;;;5054233;28;20582;-60
2023/07/04 10:13:12;;;;;;;6.22;3.50;;;24.70;97.60;;;;;;5053809;28;20208;-59
2023/07/04 10:15:41;;;;;;;5.40;3.80;;;24.90;97.50;;;;;;5053999;28;20257;-60
2023/07/04 10:18:17;;;;;;;4.18;3.47;;;25.00;96.60;;;;;;5052417;28;20205;-60
2023/07/04 10:20:45;;;;;;;6.13;3.92;;;25.00;96.00;;;;;;5053653;28;20641;-60
2023/07/04 10:23:14;;;;;;;5.85;4.55;;;25.10;94.90;;;;;;5053896;28;20201;-59
2023/07/04 10:25:42;;;;;;;6.78;5.03;;;25.30;94.80;;;;;;5053293;28;20927;-59
2023/07/04 10:28:12;;;;;;;4.80;4.40;;;25.40;94.30;;;;;;5053948;28;20769;-58
2023/07/04 10:30:41;;;;;;;6.50;4.20;;;25.50;93.70;;;;;;5054013;28;20201;-58
2023/07/04 10:33:13;;;;;;;5.93;4.07;;;25.60;93.40;;;;;;5053714;28;20284;-60
2023/07/04 10:35:42;;;;;;;5.57;5.07;;;25.80;95.00;;;;;;5053396;28;20308;-59
2023/07/04 10:38:22;;;;;;;5.65;5.07;;;25.90;91.50;;;;;;5053957;28;20288;-59
2023/07/04 10:40:50;;;;;;;5.63;4.95;;;26.00;91.50;;;;;;5053653;28;20748;-58
2023/07/04 10:43:24;;;;;;;6.35;4.05;;;26.10;91.30;;;;;;5053610;28;20205;-58
2023/07/04 10:45:52;;;;;;;8.88;4.15;;;26.10;92.00;;;;;;5052062;28;20312;-60
2023/07/04 10:48:31;;;;;;;7.35;5.13;;;26.30;91.90;;;;;;5053304;28;20204;-59
2023/07/04 10:51:00;;;;;;;5.88;5.28;;;26.50;92.80;;;;;;5053621;28;20283;-58
2023/07/04 10:53:30;;;;;;;5.95;4.78;;;26.60;89.60;;;;;;5053393;28;20263;-58
2023/07/04 10:56:00;;;;;;;9.70;5.13;;;26.80;90.50;;;;;;5053058;28;20308;-60
2023/07/04 10:58:32;;;;;;;6.60;5.03;;;27.00;89.30;;;;;;5052951;28;20622;-59
2023/07/04 11:01:02;;;;;;;8.88;5.57;;;27.20;87.20;;;;;;5053220;28;20201;-59
2023/07/04 11:03:32;;;;;;;6.72;5.28;;;27.30;85.30;;;;;;5052407;28;20217;-60
2023/07/04 11:06:00;;;;;;;11.88;5.18;;;27.40;86.10;;;;;;5051213;28;20224;-59
2023/07/04 11:08:34;;;;;;;6.85;5.60;;;27.60;85.20;;;;;;5052915;28;20226;-59
2023/07/04 11:11:06;;;;;;;8.07;5.60;;;27.90;83.60;;;;;;5052724;28;20266;-58
2023/07/04 11:13:34;;;;;;;7.63;6.18;;;28.10;83.00;;;;;;5035432;28;20288;-60
2023/07/04 11:16:04;;;;;;;6.72;5.43;;;28.20;80.40;;;;;;5052520;28;20310;-60
2023/07/04 11:18:34;;;;;;;7.95;5.82;;;28.30;79.80;;;;;;5053017;28;20197;-59
2023/07/04 11:21:10;;;;;;;9.38;6.75;;;28.30;78.40;;;;;;5052938;28;20255;-60
2023/07/04 11:23:47;;;;;;;7.47;6.72;;;28.40;77.90;;;;;;5036873;28;20644;-58
2023/07/04 11:26:15;;;;;;;10.18;6.53;;;28.40;75.90;;;;;;5052371;28;20778;-59
2023/07/04 11:28:45;;;;;;;8.93;7.28;;;28.60;77.70;;;;;;5052837;28;20224;-60
2023/07/04 11:31:25;;;;;;;9.75;7.13;;;28.70;74.50;;;;;;5052057;28;20204;-60
2023/07/04 11:34:04;;;;;;;10.13;6.57;;;28.90;76.60;;;;;;5052640;28;20627;-58
2023/07/04 11:36:33;;;;;;;7.45;6.63;;;29.20;77.90;;;;;;5052138;28;20310;-59
2023/07/04 11:39:03;;;;;;;9.43;7.18;;;29.20;73.20;;;;;;5052785;28;20632;-58
2023/07/04 11:41:32;;;;;;;8.57;6.82;;;28.90;74.50;;;;;;5052592;28;20232;-60
2023/07/04 11:44:03;;;;;;;8.93;7.38;;;29.10;72.90;;;;;;5052428;28;20640;-59
2023/07/04 11:46:31;;;;;;;7.50;6.57;;;29.10;71.40;;;;;;5052052;28;20221;-60
2023/07/04 11:48:59;;;;;;;8.82;6.95;;;29.30;70.10;;;;;;5050189;28;20205;-60
2023/07/04 11:51:27;;;;;;;9.25;7.15;;;29.30;69.70;;;;;;5050965;28;20696;-61
2023/07/04 11:53:55;;;;;;;7.15;6.45;;;29.50;71.80;;;;;;5051899;28;20229;-60
2023/07/04 11:56:41;;;;;;;9.18;7.35;;;29.80;68.80;;;;;;5052027;28;20248;-59
2023/07/04 11:59:27;;;;;;;8.35;6.93;;;29.80;67.50;;;;;;5050491;28;20197;-61
2023/07/04 12:02:25;;;;;;;9.45;7.00;;;29.90;67.90;;;;;;5052495;28;20201;-60
2023/07/04 12:04:53;;;;;;;7.50;6.82;;;30.20;65.90;;;;;;5051217;28;20244;-60
2023/07/04 12:07:31;;;;;;;8.20;7.03;;;30.20;64.70;;;;;;5052038;28;20217;-61
2023/07/04 12:10:05;;;;;;;7.47;6.78;;;29.90;64.70;;;;;;5051837;28;20201;-59
2023/07/04 12:12:37;;;;;;;8.13;7.00;;;29.90;65.00;;;;;;5051980;28;20251;-60
2023/07/04 12:15:08;;;;;;;8.18;6.72;;;30.00;64.70;;;;;;5051780;28;20225;-60
2023/07/04 12:17:39;;;;;;;12.40;6.75;;;30.00;64.20;;;;;;5051959;28;20227;-61
2023/07/04 12:20:11;;;;;;;10.27;7.13;;;30.20;64.70;;;;;;5051800;28;20255;-59
2023/07/04 12:22:45;;;;;;;7.65;6.88;;;30.40;64.70;;;;;;5051835;28;20209;-61
2023/07/04 12:25:20;;;;;;;10.07;7.78;;;30.50;63.50;;;;;;5051289;28;20232;-59
2023/07/04 12:27:49;;;;;;;8.38;6.95;;;30.80;63.10;;;;;;5051579;28;20256;-60
2023/07/04 12:30:17;;;;;;;14.07;7.72;;;31.10;62.20;;;;;;5051466;28;20205;-61
2023/07/04 12:32:45;;;;;;;10.52;7.55;;;31.30;62.70;;;;;;5051406;28;20205;-61
2023/07/04 12:35:18;;;;;;;8.38;7.05;;;31.40;62.90;;;;;;5050908;28;20256;-59
2023/07/04 12:37:48;;;;;;;9.02;8.13;;;31.40;61.40;;;;;;5049452;28;20228;-60
2023/07/04 12:40:17;;;;;;;9.25;6.93;;;31.60;63.20;;;;;;5051547;28;20766;-60
2023/07/04 12:42:45;;;;;;;8.77;7.45;;;31.60;61.10;;;;;;5051307;28;20197;-59
2023/07/04 12:45:17;;;;;;;13.93;7.38;;;31.50;62.00;;;;;;5050755;28;20228;-62
2023/07/04 12:47:46;;;;;;;8.90;7.32;;;31.60;61.40;;;;;;5051490;28;20286;-61
2023/07/04 12:50:34;;;;;;;9.77;7.15;;;31.70;61.10;;;;;;5051231;28;20578;-61
2023/07/04 12:53:03;;;;;;;9.93;7.40;;;31.70;62.50;;;;;;5051223;28;20202;-60
2023/07/04 12:55:32;;;;;;;8.10;7.30;;;31.90;63.80;;;;;;5050947;28;20245;-62
2023/07/04 12:58:01;;;;;;;10.02;7.70;;;32.20;65.70;;;;;;5051360;28;20255;-61